Aérodrome :
LOGIN :

S'inscrire | Disclaimer

   EN    FR    IT 

 










Légende :    VFR   VFR Marginal   IFR   IFR Intensif   IFR Très Intensif
Visi : 
Plafond : 
>= 8 km
>= 3000ft
5 à 8 km
1000 à 3000 ft
1500m à 5 km
500 à 1000 ft
800 à 1500m
200 à 500 ft
< 800m
< 200 ft
Symboles :   Orages  Brouillard  Fortes neiges  Fortes précipitations  Vent > 20 kt
SIGMETs :   Divers  Orages  Givrage  Turbulence  Onde Orograph.  Cendres Volcan.







- Altitude de l'aérodrome : 245 ft
- Code IATA : BIQ
- Voir les cartes d'approche


LFBZ - Biarritz

DERNIER METAR :
  • 101300Z AUTO VRB02KT 9999 BKN036 BKN070 BKN094 14/07 Q1031 NOSIG

METARs EXPIRÉS :
  • 101230Z AUTO VRB01KT 9999 R09/1200U SCT039 BKN074 BKN110 14/07 Q1032 NOSIG
  • 101200Z AUTO VRB02KT 9999 SCT029 SCT044 BKN100 14/07 Q1032 NOSIG
  • 101130Z AUTO VRB03KT 9999 FEW033 SCT100 BKN160 14/08 Q1033 NOSIG
  • 101100Z AUTO 10003KT 070V150 9999 FEW044 SCT160 14/08 Q1033 NOSIG
  • 101030Z AUTO VRB03KT 9999 FEW039 BKN047 BKN100 13/10 Q1034 NOSIG

TAF TAF LFBZ
Valide du 10 à 12h jusqu'au 11 à 12h UTC


101100Z 1012/1112 09005KT 9999 FEW040
BECMG 1016/1018 CAVOK
TEMPO 1103/1108 3000 BR BKN002
Pas de NOTAMs connus pour ce terrain.



MET'MAP, la Météo Aéronautique d'un coup d'oeil ! - Copyright ORBIFLY Décembre 2007 - Disclaimer

ORBIFLY MET'MAP TEAM :

Programmation & Développement : Alexandra Zaïnal
Conception & Développement : Baudouin d'Aumeries
Co-Programmation & Développement : Marc-Olivier Méhu
Soutien technique & logistique : Manuel Goepfert

Contact : metmap@orbifly.com




SOURCES & CREDITS :

   NOAA